createdAt,value
2018-01-03T00:05:03.959Z,88.61
2018-01-03T00:11:08.267Z,88.53
2018-01-03T00:17:11.726Z,88.53
2018-01-03T00:23:15.236Z,88.40
2018-01-03T00:29:18.653Z,88.12
2018-01-03T00:35:22.796Z,88.07
2018-01-03T00:41:26.272Z,87.72
2018-01-03T00:47:30.486Z,87.52
2018-01-03T00:53:33.990Z,87.33
2018-01-03T00:59:38.235Z,87.20
2018-01-03T01:05:41.806Z,87.04
2018-01-03T01:11:45.272Z,87.45
2018-01-03T01:17:49.606Z,88.34
2018-01-03T01:23:53.025Z,88.72
2018-01-03T01:29:56.513Z,88.87
2018-01-03T01:35:59.975Z,89.19
2018-01-03T01:42:03.407Z,89.93
2018-01-03T01:48:06.973Z,90.10
2018-01-03T01:54:10.517Z,90.01
2018-01-03T02:00:14.126Z,90.27
2018-01-03T02:06:17.622Z,90.28
2018-01-03T02:12:22.195Z,90.24
2018-01-03T02:18:25.675Z,90.62
2018-01-03T02:24:29.099Z,90.88
2018-01-03T02:30:32.557Z,91.18
2018-01-03T02:36:36.005Z,91.26
2018-01-03T02:42:39.457Z,91.31
2018-01-03T02:48:42.898Z,91.58
2018-01-03T02:54:46.316Z,91.90
2018-01-03T03:00:49.830Z,92.14
2018-01-03T03:06:53.661Z,92.39
2018-01-03T03:12:58.079Z,92.12
2018-01-03T03:19:01.577Z,92.12
2018-01-03T03:25:05.801Z,92.19
2018-01-03T03:31:09.335Z,92.42
2018-01-03T03:37:12.754Z,92.59
2018-01-03T03:43:17.119Z,92.59
2018-01-03T03:49:21.465Z,92.61
2018-01-03T03:55:25.217Z,92.83
2018-01-03T04:01:28.743Z,92.95
2018-01-03T04:07:32.264Z,92.96
2018-01-03T04:13:35.755Z,93.21
2018-01-03T04:19:39.205Z,93.10
2018-01-03T04:25:42.724Z,93.33
2018-01-03T04:31:47.005Z,93.67
2018-01-03T04:37:52.263Z,94.00
2018-01-03T04:43:56.043Z,94.33
2018-01-03T04:50:00.387Z,94.31
2018-01-03T04:56:03.843Z,94.35
2018-01-03T05:02:07.285Z,94.37
2018-01-03T05:08:11.040Z,94.07
2018-01-03T05:14:14.537Z,93.78
2018-01-03T05:20:18.031Z,93.67
2018-01-03T05:26:21.483Z,93.52
2018-01-03T05:32:25.012Z,93.52
2018-01-03T05:38:29.262Z,93.73
2018-01-03T05:44:32.805Z,93.99
2018-01-03T05:50:37.154Z,93.71
2018-01-03T05:56:40.588Z,93.88
2018-01-03T06:02:44.026Z,94.37
2018-01-03T06:08:48.292Z,94.39
2018-01-03T06:14:53.317Z,94.23
2018-01-03T06:20:56.929Z,94.68
2018-01-03T06:27:00.451Z,92.42
2018-01-03T06:33:03.979Z,90.24
2018-01-03T06:39:07.504Z,92.23
2018-01-03T06:45:11.710Z,92.89
2018-01-03T06:51:15.165Z,93.08
2018-01-03T06:57:18.658Z,93.46
2018-01-03T07:03:23.211Z,93.71
2018-01-03T07:09:26.633Z,94.00
2018-01-03T07:15:30.164Z,94.09
2018-01-03T07:21:34.473Z,93.84
2018-01-03T07:27:38.177Z,93.79
2018-01-03T07:33:41.639Z,93.68
2018-01-03T07:39:45.873Z,93.01
2018-01-03T07:45:49.401Z,92.04
2018-01-03T07:51:53.006Z,92.18
2018-01-03T07:57:56.638Z,91.64
2018-01-03T08:04:00.101Z,91.73
2018-01-03T08:10:04.345Z,92.14
2018-01-03T08:16:07.799Z,91.92
2018-01-03T08:22:11.452Z,91.80
2018-01-03T08:28:14.896Z,91.72
2018-01-03T08:34:18.362Z,90.96
2018-01-03T08:40:22.256Z,89.81
2018-01-03T08:46:25.714Z,87.85
2018-01-03T08:52:29.198Z,87.99
2018-01-03T08:58:33.380Z,84.61
2018-01-03T09:04:36.833Z,86.14
2018-01-03T09:10:40.471Z,88.67
2018-01-03T09:16:44.668Z,88.26
2018-01-03T09:22:48.123Z,86.07
2018-01-03T09:28:51.624Z,82.38
2018-01-03T09:34:55.631Z,79.70
2018-01-03T09:40:59.353Z,80.00
2018-01-03T09:47:02.904Z,81.60
2018-01-03T09:53:06.426Z,83.04
2018-01-03T09:59:09.952Z,81.87
2018-01-03T10:05:14.318Z,79.48
2018-01-03T10:11:18.520Z,77.92
2018-01-03T10:17:22.697Z,78.45
2018-01-03T10:23:26.394Z,75.04
2018-01-03T10:29:29.806Z,74.80
2018-01-03T10:35:33.276Z,75.26
2018-01-03T10:41:36.852Z,73.84
2018-01-03T10:47:40.338Z,74.29
2018-01-03T10:53:44.644Z,73.24
2018-01-03T10:59:48.081Z,72.67
2018-01-03T11:05:51.819Z,73.23
2018-01-03T11:11:56.094Z,72.44
2018-01-03T11:18:00.475Z,71.49
2018-01-03T11:24:03.911Z,71.86
2018-01-03T11:30:08.134Z,71.95
2018-01-03T11:36:11.590Z,72.46
2018-01-03T11:42:15.066Z,71.80
2018-01-03T11:48:18.489Z,72.55
2018-01-03T11:54:22.103Z,72.48
2018-01-03T12:00:26.482Z,71.01
2018-01-03T12:06:30.703Z,71.09
2018-01-03T12:12:34.323Z,69.95
2018-01-03T12:18:38.518Z,70.37
2018-01-03T12:24:42.055Z,72.72
2018-01-03T12:30:45.547Z,74.13
2018-01-03T12:36:49.460Z,75.82
2018-01-03T12:42:52.899Z,76.17
2018-01-03T12:48:56.588Z,77.12
2018-01-03T12:55:00.134Z,79.02
2018-01-03T13:01:03.630Z,81.63
2018-01-03T13:07:07.058Z,82.78
2018-01-03T13:13:10.708Z,85.07
2018-01-03T13:19:19.970Z,85.30
2018-01-03T13:25:23.466Z,85.69
2018-01-03T13:31:26.873Z,86.58
2018-01-03T13:37:30.282Z,87.03
2018-01-03T13:43:33.756Z,86.20
2018-01-03T13:49:38.154Z,86.60
2018-01-03T13:57:11.950Z,85.73
2018-01-03T14:03:15.365Z,87.06
2018-01-03T14:09:19.630Z,86.99
2018-01-03T14:16:30.151Z,87.89
2018-01-03T14:22:33.590Z,88.72
2018-01-03T14:28:37.091Z,88.08
2018-01-03T14:34:41.322Z,87.90
2018-01-03T14:40:44.793Z,88.12
2018-01-03T14:46:49.025Z,88.98
2018-01-03T14:52:52.985Z,89.02
2018-01-03T14:58:57.155Z,89.15
2018-01-03T15:05:00.910Z,87.83
2018-01-03T15:11:04.397Z,87.21
2018-01-03T15:17:08.643Z,87.09
2018-01-03T15:23:12.123Z,86.39
2018-01-03T15:29:15.705Z,86.02
2018-01-03T15:35:20.017Z,85.27
2018-01-03T15:41:24.222Z,87.07
2018-01-03T15:47:28.840Z,85.22
2018-01-03T15:53:32.434Z,85.36
2018-01-03T15:59:36.163Z,86.52
2018-01-03T16:05:39.674Z,85.63
2018-01-03T16:11:43.361Z,86.14
2018-01-03T16:17:47.615Z,86.90
2018-01-03T16:23:52.179Z,86.19
2018-01-03T16:29:56.396Z,86.21
2018-01-03T16:36:00.318Z,86.29
2018-01-03T16:42:03.759Z,86.13
2018-01-03T16:48:07.213Z,86.52
2018-01-03T16:54:10.675Z,86.06
2018-01-03T17:00:14.121Z,84.22
2018-01-03T17:06:17.606Z,82.51
2018-01-03T17:12:21.150Z,81.84
2018-01-03T17:18:25.507Z,82.12
2018-01-03T17:24:29.074Z,81.66
2018-01-03T17:30:32.619Z,84.08
2018-01-03T17:36:36.106Z,83.22
2018-01-03T17:42:40.322Z,83.08
2018-01-03T17:48:43.755Z,81.66
2018-01-03T17:54:47.222Z,80.67
2018-01-03T18:00:50.813Z,79.83
2018-01-03T18:06:54.459Z,79.32
2018-01-03T18:12:58.376Z,79.85
2018-01-03T18:19:02.036Z,83.85
2018-01-03T18:25:05.471Z,85.13
2018-01-03T18:31:09.650Z,81.82
2018-01-03T18:37:13.101Z,82.43
2018-01-03T18:43:16.664Z,82.37
2018-01-03T18:49:20.314Z,82.65
2018-01-03T18:55:24.475Z,82.36
2018-01-03T19:01:28.069Z,83.50
2018-01-03T19:07:31.492Z,84.00
2018-01-03T19:13:35.259Z,84.69
2018-01-03T19:19:38.776Z,85.66
2018-01-03T19:25:42.258Z,86.66
2018-01-03T19:31:45.865Z,86.62
2018-01-03T19:37:49.317Z,86.36
2018-01-03T19:43:52.926Z,82.67
2018-01-03T19:49:58.055Z,80.84
2018-01-03T19:56:02.033Z,79.59
2018-01-03T20:02:05.715Z,78.06
2018-01-03T20:08:09.270Z,76.81
2018-01-03T20:14:12.754Z,77.14
2018-01-03T20:20:16.203Z,77.69
2018-01-03T20:26:19.740Z,78.04
2018-01-03T20:32:23.765Z,77.80
2018-01-03T20:38:28.264Z,77.42
2018-01-03T20:44:31.732Z,77.85
2018-01-03T20:50:36.129Z,79.09
2018-01-03T20:56:39.838Z,80.35
2018-01-03T21:02:43.316Z,79.17
2018-01-03T21:08:46.829Z,77.69
2018-01-03T21:14:50.508Z,79.49
2018-01-03T21:20:53.981Z,82.22
2018-01-03T21:26:58.036Z,82.68
2018-01-03T21:33:01.682Z,82.79
2018-01-03T21:39:05.164Z,83.59
2018-01-03T21:45:09.464Z,84.83
2018-01-03T21:51:13.016Z,83.88
2018-01-03T21:57:16.530Z,82.61
2018-01-03T22:03:20.828Z,83.13
2018-01-03T22:09:24.777Z,84.75
2018-01-03T22:15:29.336Z,85.24
2018-01-03T22:21:32.962Z,85.49
2018-01-03T22:27:36.490Z,86.44
2018-01-03T22:33:40.825Z,86.56
2018-01-03T22:39:44.283Z,86.40
2018-01-03T22:45:47.749Z,86.74
2018-01-03T22:51:51.223Z,88.17
2018-01-03T22:57:56.270Z,87.04
2018-01-03T23:04:00.750Z,87.45
2018-01-03T23:10:04.344Z,86.75
2018-01-03T23:16:08.795Z,86.85
2018-01-03T23:22:13.901Z,86.71
2018-01-03T23:28:17.338Z,86.05
2018-01-03T23:34:20.928Z,86.29
2018-01-03T23:40:24.500Z,86.98
2018-01-03T23:46:28.177Z,86.45
2018-01-03T23:52:31.752Z,85.19
2018-01-03T23:58:35.308Z,84.45
